CYYJ/YYJ METAR and TAF weather

Enter ICAO airport designator
Station Type Date Time Source
CYYJ METAR 2022/01/26 07:00 UTC NOAA

CYYJ 260700Z 34003KT 7SM FEW005 OVC008 03/03 A3026 RMK SF1SC7 SLP251


Station Type Date Time Source
CYYJ Decoded METAR 2022/01/26 07:00 UTC NOAA

Victoria Int. Airport, B. C., Canada (CYYJ) 48-39N 123-26W 19M
Jan 26, 2022 - 02:00 AM EST / 2022.01.26 0700 UTC
Wind: from the NNW (340 degrees) at 3 MPH (3 KT):0
Visibility: 7 mile(s):0
Sky conditions: overcast
Temperature: 37 F (3 C)
Dew Point: 37 F (3 C)
Relative Humidity: 100%
Pressure (altimeter): 30.26 in. Hg (1024 hPa)
ob: CYYJ 260700Z 34003KT 7SM FEW005 OVC008 03/03 A3026 RMK SF1SC7 SLP251
cycle: 7

Station Type Date Time Source
CYYJ TAF 2022/01/26 06:42 UTC NOAA

TAF CYYJ 260540Z 2606/2706 29005KT P6SM SCT003 BKN006
TEMPO 2606/2618 2SM BR BKN003
FM261800 29005KT P6SM SCT006
FM262000 03005KT P6SM SCT010
FM270300 28005KT P6SM BKN006
RMK NXT FCST BY 261200Z

Example: see airport list